sensor_id;sensor_type;location;lat;lon;timestamp;P1;durP1;ratioP1;P2;durP2;ratioP2
80578;SDS011;69939;52.402;6.608;2023-08-30T00:00:35;10.70;;;6.03;;
80578;SDS011;69939;52.402;6.608;2023-08-30T00:03:05;13.45;;;6.00;;
80578;SDS011;69939;52.402;6.608;2023-08-30T00:05:38;16.92;;;6.15;;
80578;SDS011;69939;52.402;6.608;2023-08-30T00:08:08;9.35;;;5.68;;
80578;SDS011;69939;52.402;6.608;2023-08-30T00:10:38;9.50;;;5.95;;
80578;SDS011;69939;52.402;6.608;2023-08-30T00:13:08;12.57;;;6.18;;
80578;SDS011;69939;52.402;6.608;2023-08-30T00:15:43;8.88;;;5.75;;
80578;SDS011;69939;52.402;6.608;2023-08-30T00:18:12;8.43;;;5.45;;
80578;SDS011;69939;52.402;6.608;2023-08-30T00:20:44;6.28;;;4.80;;
80578;SDS011;69939;52.402;6.608;2023-08-30T00:23:13;6.90;;;4.95;;
80578;SDS011;69939;52.402;6.608;2023-08-30T00:25:42;8.73;;;4.78;;
80578;SDS011;69939;52.402;6.608;2023-08-30T00:30:44;7.35;;;5.07;;
80578;SDS011;69939;52.402;6.608;2023-08-30T00:33:13;8.13;;;5.32;;
80578;SDS011;69939;52.402;6.608;2023-08-30T00:35:43;6.18;;;4.90;;
80578;SDS011;69939;52.402;6.608;2023-08-30T00:38:12;9.00;;;5.47;;
80578;SDS011;69939;52.402;6.608;2023-08-30T00:40:42;9.27;;;5.63;;
80578;SDS011;69939;52.402;6.608;2023-08-30T00:43:11;8.82;;;5.63;;
80578;SDS011;69939;52.402;6.608;2023-08-30T00:45:43;13.45;;;5.95;;
80578;SDS011;69939;52.402;6.608;2023-08-30T00:48:12;9.00;;;5.40;;
80578;SDS011;69939;52.402;6.608;2023-08-30T00:50:43;12.32;;;5.65;;
80578;SDS011;69939;52.402;6.608;2023-08-30T00:53:14;9.95;;;5.78;;
80578;SDS011;69939;52.402;6.608;2023-08-30T00:55:44;8.23;;;6.00;;
80578;SDS011;69939;52.402;6.608;2023-08-30T00:58:15;7.88;;;5.63;;
80578;SDS011;69939;52.402;6.608;2023-08-30T01:00:48;9.75;;;5.65;;
80578;SDS011;69939;52.402;6.608;2023-08-30T01:03:18;9.88;;;5.50;;
80578;SDS011;69939;52.402;6.608;2023-08-30T01:05:48;7.88;;;6.00;;
80578;SDS011;69939;52.402;6.608;2023-08-30T01:08:20;6.72;;;4.95;;
80578;SDS011;69939;52.402;6.608;2023-08-30T01:13:32;10.43;;;5.32;;
80578;SDS011;69939;52.402;6.608;2023-08-30T01:16:10;9.20;;;6.18;;
80578;SDS011;69939;52.402;6.608;2023-08-30T01:18:42;10.60;;;5.40;;
80578;SDS011;69939;52.402;6.608;2023-08-30T01:21:17;11.27;;;5.72;;
80578;SDS011;69939;52.402;6.608;2023-08-30T01:23:59;11.43;;;5.85;;
80578;SDS011;69939;52.402;6.608;2023-08-30T01:26:38;9.02;;;5.88;;
80578;SDS011;69939;52.402;6.608;2023-08-30T01:29:21;10.00;;;5.28;;
80578;SDS011;69939;52.402;6.608;2023-08-30T01:31:52;8.43;;;5.47;;
80578;SDS011;69939;52.402;6.608;2023-08-30T01:34:23;11.45;;;5.55;;
80578;SDS011;69939;52.402;6.608;2023-08-30T01:36:54;10.15;;;5.03;;
80578;SDS011;69939;52.402;6.608;2023-08-30T01:39:24;7.95;;;5.20;;
80578;SDS011;69939;52.402;6.608;2023-08-30T01:41:55;6.57;;;5.00;;
80578;SDS011;69939;52.402;6.608;2023-08-30T01:44:31;11.73;;;6.43;;
80578;SDS011;69939;52.402;6.608;2023-08-30T01:47:04;9.10;;;5.68;;
80578;SDS011;69939;52.402;6.608;2023-08-30T01:49:35;7.95;;;5.22;;
80578;SDS011;69939;52.402;6.608;2023-08-30T01:52:06;8.30;;;5.38;;
80578;SDS011;69939;52.402;6.608;2023-08-30T01:54:37;11.32;;;5.82;;
80578;SDS011;69939;52.402;6.608;2023-08-30T01:57:09;7.65;;;6.40;;
80578;SDS011;69939;52.402;6.608;2023-08-30T01:59:42;9.52;;;5.28;;
80578;SDS011;69939;52.402;6.608;2023-08-30T02:02:12;9.85;;;5.65;;
80578;SDS011;69939;52.402;6.608;2023-08-30T02:04:41;7.80;;;4.93;;
80578;SDS011;69939;52.402;6.608;2023-08-30T02:07:11;10.18;;;5.35;;
80578;SDS011;69939;52.402;6.608;2023-08-30T02:09:49;8.30;;;5.25;;
80578;SDS011;69939;52.402;6.608;2023-08-30T02:12:27;7.53;;;5.32;;
80578;SDS011;69939;52.402;6.608;2023-08-30T02:15:07;9.25;;;5.90;;
80578;SDS011;69939;52.402;6.608;2023-08-30T02:17:39;9.55;;;5.60;;
80578;SDS011;69939;52.402;6.608;2023-08-30T02:20:14;6.28;;;5.10;;
80578;SDS011;69939;52.402;6.608;2023-08-30T02:22:48;6.90;;;4.72;;
80578;SDS011;69939;52.402;6.608;2023-08-30T02:25:18;9.98;;;4.32;;
80578;SDS011;69939;52.402;6.608;2023-08-30T02:27:52;9.75;;;5.22;;
80578;SDS011;69939;52.402;6.608;2023-08-30T02:30:25;8.32;;;5.32;;
80578;SDS011;69939;52.402;6.608;2023-08-30T02:32:54;9.27;;;5.68;;
80578;SDS011;69939;52.402;6.608;2023-08-30T02:35:24;8.85;;;5.25;;
80578;SDS011;69939;52.402;6.608;2023-08-30T02:38:04;9.90;;;5.25;;
80578;SDS011;69939;52.402;6.608;2023-08-30T02:40:35;8.48;;;5.30;;
80578;SDS011;69939;52.402;6.608;2023-08-30T02:43:06;9.60;;;5.53;;
80578;SDS011;69939;52.402;6.608;2023-08-30T02:45:39;7.80;;;5.50;;
80578;SDS011;69939;52.402;6.608;2023-08-30T02:48:12;9.55;;;5.43;;
80578;SDS011;69939;52.402;6.608;2023-08-30T02:50:43;9.55;;;5.63;;
80578;SDS011;69939;52.402;6.608;2023-08-30T02:53:14;10.55;;;5.05;;
80578;SDS011;69939;52.402;6.608;2023-08-30T02:55:43;12.95;;;5.28;;
80578;SDS011;69939;52.402;6.608;2023-08-30T02:58:15;8.32;;;5.45;;
80578;SDS011;69939;52.402;6.608;2023-08-30T03:00:48;9.27;;;5.10;;
80578;SDS011;69939;52.402;6.608;2023-08-30T03:03:23;9.00;;;5.50;;
80578;SDS011;69939;52.402;6.608;2023-08-30T03:05:52;8.95;;;6.03;;
80578;SDS011;69939;52.402;6.608;2023-08-30T03:08:22;8.60;;;5.68;;
80578;SDS011;69939;52.402;6.608;2023-08-30T03:10:52;10.32;;;6.25;;
80578;SDS011;69939;52.402;6.608;2023-08-30T03:13:23;7.72;;;5.18;;
80578;SDS011;69939;52.402;6.608;2023-08-30T03:15:55;9.13;;;5.60;;
80578;SDS011;69939;52.402;6.608;2023-08-30T03:18:30;8.63;;;6.32;;
80578;SDS011;69939;52.402;6.608;2023-08-30T03:21:00;12.95;;;6.45;;
80578;SDS011;69939;52.402;6.608;2023-08-30T03:23:33;10.88;;;5.82;;
80578;SDS011;69939;52.402;6.608;2023-08-30T03:26:08;9.98;;;5.32;;
80578;SDS011;69939;52.402;6.608;2023-08-30T03:28:38;13.25;;;5.53;;
80578;SDS011;69939;52.402;6.608;2023-08-30T03:31:16;11.80;;;5.50;;
80578;SDS011;69939;52.402;6.608;2023-08-30T03:33:47;11.20;;;6.53;;
80578;SDS011;69939;52.402;6.608;2023-08-30T03:36:20;11.30;;;6.25;;
80578;SDS011;69939;52.402;6.608;2023-08-30T03:38:50;11.15;;;6.35;;
80578;SDS011;69939;52.402;6.608;2023-08-30T03:41:21;10.43;;;6.15;;
80578;SDS011;69939;52.402;6.608;2023-08-30T03:43:59;10.07;;;5.95;;
80578;SDS011;69939;52.402;6.608;2023-08-30T03:46:34;11.02;;;5.47;;
80578;SDS011;69939;52.402;6.608;2023-08-30T03:49:04;9.63;;;5.43;;
80578;SDS011;69939;52.402;6.608;2023-08-30T03:51:35;11.57;;;5.70;;
80578;SDS011;69939;52.402;6.608;2023-08-30T03:54:07;10.95;;;6.13;;
80578;SDS011;69939;52.402;6.608;2023-08-30T03:56:43;9.07;;;6.18;;
80578;SDS011;69939;52.402;6.608;2023-08-30T03:59:16;11.25;;;5.82;;
80578;SDS011;69939;52.402;6.608;2023-08-30T04:01:50;9.95;;;5.82;;
80578;SDS011;69939;52.402;6.608;2023-08-30T04:04:20;10.07;;;5.13;;
80578;SDS011;69939;52.402;6.608;2023-08-30T04:06:50;8.43;;;5.55;;
80578;SDS011;69939;52.402;6.608;2023-08-30T04:09:20;7.93;;;5.05;;
80578;SDS011;69939;52.402;6.608;2023-08-30T04:11:50;10.45;;;6.15;;
80578;SDS011;69939;52.402;6.608;2023-08-30T04:14:20;8.30;;;5.95;;
80578;SDS011;69939;52.402;6.608;2023-08-30T04:16:52;11.60;;;6.10;;
80578;SDS011;69939;52.402;6.608;2023-08-30T04:19:21;12.63;;;6.03;;
80578;SDS011;69939;52.402;6.608;2023-08-30T04:21:51;9.38;;;5.55;;
80578;SDS011;69939;52.402;6.608;2023-08-30T04:24:20;8.88;;;5.80;;
80578;SDS011;69939;52.402;6.608;2023-08-30T04:26:49;12.75;;;6.78;;
80578;SDS011;69939;52.402;6.608;2023-08-30T04:29:19;11.07;;;5.93;;
80578;SDS011;69939;52.402;6.608;2023-08-30T04:31:55;10.23;;;5.88;;
80578;SDS011;69939;52.402;6.608;2023-08-30T04:34:24;9.35;;;6.15;;
80578;SDS011;69939;52.402;6.608;2023-08-30T04:36:55;9.30;;;6.55;;
80578;SDS011;69939;52.402;6.608;2023-08-30T04:39:31;10.20;;;6.63;;
80578;SDS011;69939;52.402;6.608;2023-08-30T04:42:01;11.40;;;6.55;;
80578;SDS011;69939;52.402;6.608;2023-08-30T04:44:33;11.85;;;6.13;;
80578;SDS011;69939;52.402;6.608;2023-08-30T04:47:06;10.70;;;6.30;;
80578;SDS011;69939;52.402;6.608;2023-08-30T04:49:36;13.35;;;7.18;;
80578;SDS011;69939;52.402;6.608;2023-08-30T04:52:07;14.10;;;5.95;;
80578;SDS011;69939;52.402;6.608;2023-08-30T04:54:37;10.98;;;6.13;;
80578;SDS011;69939;52.402;6.608;2023-08-30T04:57:10;12.77;;;7.00;;
80578;SDS011;69939;52.402;6.608;2023-08-30T04:59:41;11.75;;;6.63;;
80578;SDS011;69939;52.402;6.608;2023-08-30T05:02:14;9.95;;;6.30;;
80578;SDS011;69939;52.402;6.608;2023-08-30T05:04:46;8.40;;;6.18;;
80578;SDS011;69939;52.402;6.608;2023-08-30T05:07:18;10.73;;;6.32;;
80578;SDS011;69939;52.402;6.608;2023-08-30T05:09:49;13.32;;;6.70;;
80578;SDS011;69939;52.402;6.608;2023-08-30T05:12:18;12.77;;;7.03;;
80578;SDS011;69939;52.402;6.608;2023-08-30T05:14:48;10.52;;;6.50;;
80578;SDS011;69939;52.402;6.608;2023-08-30T05:17:21;11.73;;;6.65;;
80578;SDS011;69939;52.402;6.608;2023-08-30T05:19:51;10.85;;;6.65;;
80578;SDS011;69939;52.402;6.608;2023-08-30T05:22:21;12.23;;;6.75;;
80578;SDS011;69939;52.402;6.608;2023-08-30T05:24:50;11.07;;;6.15;;
80578;SDS011;69939;52.402;6.608;2023-08-30T05:27:19;11.75;;;6.53;;
80578;SDS011;69939;52.402;6.608;2023-08-30T05:29:49;11.88;;;7.20;;
80578;SDS011;69939;52.402;6.608;2023-08-30T05:32:25;12.60;;;6.75;;
80578;SDS011;69939;52.402;6.608;2023-08-30T05:34:56;10.10;;;6.45;;
80578;SDS011;69939;52.402;6.608;2023-08-30T05:37:27;11.30;;;6.78;;
80578;SDS011;69939;52.402;6.608;2023-08-30T05:39:56;11.27;;;6.30;;
80578;SDS011;69939;52.402;6.608;2023-08-30T05:42:26;10.70;;;6.57;;
80578;SDS011;69939;52.402;6.608;2023-08-30T05:44:58;8.57;;;5.85;;
80578;SDS011;69939;52.402;6.608;2023-08-30T05:47:30;11.57;;;6.75;;
80578;SDS011;69939;52.402;6.608;2023-08-30T05:50:03;10.23;;;6.45;;
80578;SDS011;69939;52.402;6.608;2023-08-30T05:52:33;10.68;;;5.93;;
80578;SDS011;69939;52.402;6.608;2023-08-30T05:55:06;10.73;;;6.57;;
80578;SDS011;69939;52.402;6.608;2023-08-30T05:57:39;12.43;;;7.88;;
80578;SDS011;69939;52.402;6.608;2023-08-30T06:00:08;11.93;;;6.53;;
80578;SDS011;69939;52.402;6.608;2023-08-30T06:02:42;10.52;;;6.38;;
80578;SDS011;69939;52.402;6.608;2023-08-30T06:05:11;11.02;;;7.65;;
80578;SDS011;69939;52.402;6.608;2023-08-30T06:07:41;12.93;;;7.00;;
80578;SDS011;69939;52.402;6.608;2023-08-30T06:10:11;10.57;;;6.88;;
80578;SDS011;69939;52.402;6.608;2023-08-30T06:12:41;13.57;;;7.28;;
80578;SDS011;69939;52.402;6.608;2023-08-30T06:15:11;11.55;;;6.93;;
80578;SDS011;69939;52.402;6.608;2023-08-30T06:20:11;12.25;;;7.60;;
80578;SDS011;69939;52.402;6.608;2023-08-30T06:22:41;10.60;;;6.90;;
80578;SDS011;69939;52.402;6.608;2023-08-30T06:25:10;11.07;;;7.32;;
80578;SDS011;69939;52.402;6.608;2023-08-30T06:27:55;12.23;;;7.63;;
80578;SDS011;69939;52.402;6.608;2023-08-30T06:30:32;15.13;;;7.55;;
80578;SDS011;69939;52.402;6.608;2023-08-30T06:33:36;9.80;;;6.70;;
80578;SDS011;69939;52.402;6.608;2023-08-30T06:36:09;11.02;;;7.32;;
80578;SDS011;69939;52.402;6.608;2023-08-30T06:38:41;12.60;;;8.13;;
80578;SDS011;69939;52.402;6.608;2023-08-30T06:41:11;11.57;;;7.30;;
80578;SDS011;69939;52.402;6.608;2023-08-30T06:44:05;10.18;;;7.57;;
80578;SDS011;69939;52.402;6.608;2023-08-30T06:47:01;11.02;;;7.32;;
80578;SDS011;69939;52.402;6.608;2023-08-30T06:49:34;11.10;;;7.40;;
80578;SDS011;69939;52.402;6.608;2023-08-30T06:52:03;13.00;;;7.88;;
80578;SDS011;69939;52.402;6.608;2023-08-30T06:54:34;13.65;;;8.95;;
80578;SDS011;69939;52.402;6.608;2023-08-30T06:57:04;12.60;;;8.82;;
80578;SDS011;69939;52.402;6.608;2023-08-30T06:59:35;13.20;;;8.13;;
80578;SDS011;69939;52.402;6.608;2023-08-30T07:02:05;11.05;;;8.13;;
80578;SDS011;69939;52.402;6.608;2023-08-30T07:04:37;11.35;;;7.72;;
80578;SDS011;69939;52.402;6.608;2023-08-30T07:07:06;11.95;;;8.45;;
80578;SDS011;69939;52.402;6.608;2023-08-30T07:09:35;10.50;;;9.18;;
80578;SDS011;69939;52.402;6.608;2023-08-30T07:12:05;10.25;;;8.73;;
80578;SDS011;69939;52.402;6.608;2023-08-30T07:14:35;11.63;;;7.53;;
80578;SDS011;69939;52.402;6.608;2023-08-30T07:17:04;10.00;;;7.50;;
80578;SDS011;69939;52.402;6.608;2023-08-30T07:19:33;12.07;;;7.55;;
80578;SDS011;69939;52.402;6.608;2023-08-30T07:22:05;11.82;;;7.93;;
80578;SDS011;69939;52.402;6.608;2023-08-30T07:24:34;11.05;;;7.35;;
80578;SDS011;69939;52.402;6.608;2023-08-30T07:27:03;9.85;;;7.28;;
80578;SDS011;69939;52.402;6.608;2023-08-30T07:29:33;10.95;;;7.35;;
80578;SDS011;69939;52.402;6.608;2023-08-30T07:32:03;11.25;;;7.90;;
80578;SDS011;69939;52.402;6.608;2023-08-30T07:34:33;10.57;;;7.25;;
80578;SDS011;69939;52.402;6.608;2023-08-30T07:37:16;11.90;;;7.22;;
80578;SDS011;69939;52.402;6.608;2023-08-30T07:39:47;14.00;;;7.20;;
80578;SDS011;69939;52.402;6.608;2023-08-30T07:42:17;10.63;;;6.82;;
80578;SDS011;69939;52.402;6.608;2023-08-30T07:47:15;12.18;;;7.63;;
80578;SDS011;69939;52.402;6.608;2023-08-30T07:52:15;13.98;;;7.82;;
80578;SDS011;69939;52.402;6.608;2023-08-30T07:54:45;11.93;;;7.78;;
80578;SDS011;69939;52.402;6.608;2023-08-30T07:57:14;11.32;;;7.55;;
80578;SDS011;69939;52.402;6.608;2023-08-30T08:02:12;11.25;;;7.78;;
80578;SDS011;69939;52.402;6.608;2023-08-30T08:07:10;10.65;;;7.45;;
80578;SDS011;69939;52.402;6.608;2023-08-30T08:09:41;14.10;;;7.68;;
80578;SDS011;69939;52.402;6.608;2023-08-30T08:12:10;10.82;;;7.95;;
80578;SDS011;69939;52.402;6.608;2023-08-30T08:14:40;11.95;;;7.05;;
80578;SDS011;69939;52.402;6.608;2023-08-30T08:17:09;14.73;;;7.88;;
80578;SDS011;69939;52.402;6.608;2023-08-30T08:19:38;10.35;;;7.60;;
80578;SDS011;69939;52.402;6.608;2023-08-30T08:22:09;10.65;;;7.13;;
80578;SDS011;69939;52.402;6.608;2023-08-30T08:24:38;10.70;;;7.43;;
80578;SDS011;69939;52.402;6.608;2023-08-30T08:27:11;8.80;;;6.85;;
80578;SDS011;69939;52.402;6.608;2023-08-30T08:29:40;11.10;;;7.47;;
80578;SDS011;69939;52.402;6.608;2023-08-30T08:32:09;11.02;;;7.10;;
80578;SDS011;69939;52.402;6.608;2023-08-30T08:37:07;8.07;;;5.63;;
80578;SDS011;69939;52.402;6.608;2023-08-30T08:39:36;9.63;;;5.97;;
80578;SDS011;69939;52.402;6.608;2023-08-30T08:42:09;11.88;;;6.47;;
80578;SDS011;69939;52.402;6.608;2023-08-30T08:44:39;10.18;;;6.68;;
80578;SDS011;69939;52.402;6.608;2023-08-30T08:47:10;13.35;;;7.57;;
80578;SDS011;69939;52.402;6.608;2023-08-30T08:49:40;8.70;;;5.93;;
80578;SDS011;69939;52.402;6.608;2023-08-30T08:52:10;10.27;;;6.32;;
80578;SDS011;69939;52.402;6.608;2023-08-30T08:54:41;13.77;;;6.43;;
80578;SDS011;69939;52.402;6.608;2023-08-30T08:57:14;11.15;;;6.97;;
80578;SDS011;69939;52.402;6.608;2023-08-30T08:59:43;7.72;;;5.32;;
80578;SDS011;69939;52.402;6.608;2023-08-30T09:02:13;11.50;;;6.30;;
80578;SDS011;69939;52.402;6.608;2023-08-30T09:04:43;9.15;;;6.00;;
80578;SDS011;69939;52.402;6.608;2023-08-30T09:07:12;9.88;;;6.35;;
80578;SDS011;69939;52.402;6.608;2023-08-30T09:09:42;11.90;;;7.18;;
80578;SDS011;69939;52.402;6.608;2023-08-30T09:12:17;9.70;;;6.28;;
80578;SDS011;69939;52.402;6.608;2023-08-30T09:14:52;10.27;;;5.80;;
80578;SDS011;69939;52.402;6.608;2023-08-30T09:17:23;8.13;;;5.45;;
80578;SDS011;69939;52.402;6.608;2023-08-30T09:20:07;10.52;;;5.00;;
80578;SDS011;69939;52.402;6.608;2023-08-30T09:22:37;8.05;;;5.55;;
80578;SDS011;69939;52.402;6.608;2023-08-30T09:25:08;10.98;;;6.43;;
80578;SDS011;69939;52.402;6.608;2023-08-30T09:27:42;11.40;;;6.53;;
80578;SDS011;69939;52.402;6.608;2023-08-30T09:30:11;11.38;;;6.10;;
80578;SDS011;69939;52.402;6.608;2023-08-30T09:32:41;8.82;;;4.90;;
80578;SDS011;69939;52.402;6.608;2023-08-30T09:35:10;9.48;;;5.90;;
80578;SDS011;69939;52.402;6.608;2023-08-30T09:37:40;8.45;;;5.53;;
80578;SDS011;69939;52.402;6.608;2023-08-30T09:40:09;10.67;;;6.13;;
80578;SDS011;69939;52.402;6.608;2023-08-30T09:42:43;10.63;;;5.55;;
80578;SDS011;69939;52.402;6.608;2023-08-30T09:45:18;10.55;;;6.10;;
80578;SDS011;69939;52.402;6.608;2023-08-30T09:47:47;10.25;;;7.07;;
80578;SDS011;69939;52.402;6.608;2023-08-30T09:50:17;12.60;;;6.63;;
80578;SDS011;69939;52.402;6.608;2023-08-30T09:52:48;12.65;;;6.82;;
80578;SDS011;69939;52.402;6.608;2023-08-30T09:55:18;11.82;;;6.43;;
80578;SDS011;69939;52.402;6.608;2023-08-30T09:57:51;10.98;;;6.60;;
80578;SDS011;69939;52.402;6.608;2023-08-30T10:00:22;13.40;;;6.85;;
80578;SDS011;69939;52.402;6.608;2023-08-30T10:02:51;11.60;;;7.05;;
80578;SDS011;69939;52.402;6.608;2023-08-30T10:05:20;9.85;;;6.95;;
80578;SDS011;69939;52.402;6.608;2023-08-30T10:07:51;12.35;;;7.30;;
80578;SDS011;69939;52.402;6.608;2023-08-30T10:10:22;10.70;;;6.47;;
80578;SDS011;69939;52.402;6.608;2023-08-30T10:12:54;10.23;;;6.72;;
80578;SDS011;69939;52.402;6.608;2023-08-30T10:15:26;12.73;;;7.45;;
80578;SDS011;69939;52.402;6.608;2023-08-30T10:18:02;13.80;;;7.10;;
80578;SDS011;69939;52.402;6.608;2023-08-30T10:20:37;14.70;;;8.02;;
80578;SDS011;69939;52.402;6.608;2023-08-30T10:23:07;12.40;;;7.33;;
80578;SDS011;69939;52.402;6.608;2023-08-30T10:25:36;10.65;;;6.40;;
80578;SDS011;69939;52.402;6.608;2023-08-30T10:28:10;13.35;;;7.55;;
80578;SDS011;69939;52.402;6.608;2023-08-30T10:30:39;10.57;;;6.80;;
80578;SDS011;69939;52.402;6.608;2023-08-30T10:33:12;9.40;;;6.85;;
80578;SDS011;69939;52.402;6.608;2023-08-30T10:35:46;13.25;;;7.32;;
80578;SDS011;69939;52.402;6.608;2023-08-30T10:38:25;11.30;;;6.82;;
80578;SDS011;69939;52.402;6.608;2023-08-30T10:41:05;12.57;;;7.03;;
80578;SDS011;69939;52.402;6.608;2023-08-30T10:43:38;9.63;;;6.22;;
80578;SDS011;69939;52.402;6.608;2023-08-30T10:46:08;10.00;;;6.20;;
80578;SDS011;69939;52.402;6.608;2023-08-30T10:48:38;9.77;;;7.00;;
80578;SDS011;69939;52.402;6.608;2023-08-30T10:51:19;11.57;;;6.57;;
80578;SDS011;69939;52.402;6.608;2023-08-30T10:56:27;10.10;;;6.50;;
80578;SDS011;69939;52.402;6.608;2023-08-30T10:59:05;10.45;;;5.93;;
80578;SDS011;69939;52.402;6.608;2023-08-30T11:01:46;9.35;;;5.65;;
80578;SDS011;69939;52.402;6.608;2023-08-30T11:04:17;8.55;;;6.07;;
80578;SDS011;69939;52.402;6.608;2023-08-30T11:06:48;8.40;;;5.72;;
80578;SDS011;69939;52.402;6.608;2023-08-30T11:09:21;9.82;;;6.25;;
80578;SDS011;69939;52.402;6.608;2023-08-30T11:11:53;6.45;;;3.67;;
80578;SDS011;69939;52.402;6.608;2023-08-30T11:14:24;7.57;;;5.15;;
80578;SDS011;69939;52.402;6.608;2023-08-30T11:16:54;7.20;;;5.43;;
80578;SDS011;69939;52.402;6.608;2023-08-30T11:19:23;7.45;;;4.82;;
80578;SDS011;69939;52.402;6.608;2023-08-30T11:22:00;4.75;;;4.05;;
80578;SDS011;69939;52.402;6.608;2023-08-30T11:24:30;6.95;;;4.55;;
80578;SDS011;69939;52.402;6.608;2023-08-30T11:27:02;5.97;;;3.67;;
80578;SDS011;69939;52.402;6.608;2023-08-30T11:29:34;6.70;;;5.10;;
80578;SDS011;69939;52.402;6.608;2023-08-30T11:32:04;6.03;;;3.58;;
80578;SDS011;69939;52.402;6.608;2023-08-30T11:34:35;6.47;;;4.88;;
80578;SDS011;69939;52.402;6.608;2023-08-30T11:37:05;5.63;;;3.67;;
80578;SDS011;69939;52.402;6.608;2023-08-30T11:39:34;7.65;;;5.07;;
80578;SDS011;69939;52.402;6.608;2023-08-30T11:42:06;7.18;;;4.32;;
80578;SDS011;69939;52.402;6.608;2023-08-30T11:44:38;7.13;;;4.88;;
80578;SDS011;69939;52.402;6.608;2023-08-30T11:47:09;8.63;;;5.20;;
80578;SDS011;69939;52.402;6.608;2023-08-30T11:49:41;7.28;;;5.03;;
80578;SDS011;69939;52.402;6.608;2023-08-30T11:52:10;6.18;;;4.43;;
80578;SDS011;69939;52.402;6.608;2023-08-30T11:54:40;5.40;;;4.30;;
80578;SDS011;69939;52.402;6.608;2023-08-30T11:57:10;6.95;;;5.00;;
80578;SDS011;69939;52.402;6.608;2023-08-30T11:59:41;6.57;;;4.80;;
80578;SDS011;69939;52.402;6.608;2023-08-30T12:02:12;6.65;;;4.68;;
80578;SDS011;69939;52.402;6.608;2023-08-30T12:04:45;9.07;;;5.38;;
80578;SDS011;69939;52.402;6.608;2023-08-30T12:07:21;7.15;;;5.18;;
80578;SDS011;69939;52.402;6.608;2023-08-30T12:09:52;7.13;;;5.20;;
80578;SDS011;69939;52.402;6.608;2023-08-30T12:12:31;6.32;;;4.68;;
80578;SDS011;69939;52.402;6.608;2023-08-30T12:15:04;7.65;;;5.32;;
80578;SDS011;69939;52.402;6.608;2023-08-30T12:17:36;8.10;;;5.82;;
80578;SDS011;69939;52.402;6.608;2023-08-30T12:20:13;6.45;;;4.97;;
80578;SDS011;69939;52.402;6.608;2023-08-30T12:22:45;6.82;;;5.65;;
80578;SDS011;69939;52.402;6.608;2023-08-30T12:25:16;8.25;;;5.22;;
80578;SDS011;69939;52.402;6.608;2023-08-30T12:27:48;10.45;;;5.65;;
80578;SDS011;69939;52.402;6.608;2023-08-30T12:30:20;6.32;;;5.15;;
80578;SDS011;69939;52.402;6.608;2023-08-30T12:32:49;7.20;;;5.38;;
80578;SDS011;69939;52.402;6.608;2023-08-30T12:35:18;7.50;;;6.45;;
80578;SDS011;69939;52.402;6.608;2023-08-30T12:37:48;8.68;;;5.32;;
80578;SDS011;69939;52.402;6.608;2023-08-30T12:40:17;7.90;;;5.50;;
80578;SDS011;69939;52.402;6.608;2023-08-30T12:42:46;6.60;;;5.72;;
80578;SDS011;69939;52.402;6.608;2023-08-30T12:45:15;6.75;;;5.53;;
80578;SDS011;69939;52.402;6.608;2023-08-30T12:47:47;6.82;;;5.38;;
80578;SDS011;69939;52.402;6.608;2023-08-30T12:50:16;8.02;;;6.10;;
80578;SDS011;69939;52.402;6.608;2023-08-30T12:55:14;8.07;;;5.63;;
80578;SDS011;69939;52.402;6.608;2023-08-30T12:57:44;9.02;;;6.50;;
80578;SDS011;69939;52.402;6.608;2023-08-30T13:00:14;6.28;;;5.50;;
80578;SDS011;69939;52.402;6.608;2023-08-30T13:02:43;6.18;;;4.82;;
80578;SDS011;69939;52.402;6.608;2023-08-30T13:05:15;6.28;;;5.65;;
80578;SDS011;69939;52.402;6.608;2023-08-30T13:07:46;4.10;;;3.08;;
80578;SDS011;69939;52.402;6.608;2023-08-30T13:10:16;4.15;;;3.35;;
80578;SDS011;69939;52.402;6.608;2023-08-30T13:12:45;4.60;;;3.72;;
80578;SDS011;69939;52.402;6.608;2023-08-30T13:17:43;4.38;;;3.10;;
80578;SDS011;69939;52.402;6.608;2023-08-30T13:20:15;5.07;;;4.05;;
80578;SDS011;69939;52.402;6.608;2023-08-30T13:22:45;5.43;;;3.53;;
80578;SDS011;69939;52.402;6.608;2023-08-30T13:25:14;4.25;;;3.55;;
80578;SDS011;69939;52.402;6.608;2023-08-30T13:27:43;5.60;;;4.22;;
80578;SDS011;69939;52.402;6.608;2023-08-30T13:30:13;5.07;;;3.60;;
80578;SDS011;69939;52.402;6.608;2023-08-30T13:32:42;3.13;;;2.50;;
80578;SDS011;69939;52.402;6.608;2023-08-30T13:35:14;2.35;;;1.50;;
80578;SDS011;69939;52.402;6.608;2023-08-30T13:37:44;3.50;;;2.10;;
80578;SDS011;69939;52.402;6.608;2023-08-30T13:40:13;1.67;;;1.48;;
80578;SDS011;69939;52.402;6.608;2023-08-30T13:42:42;2.08;;;1.33;;
80578;SDS011;69939;52.402;6.608;2023-08-30T13:45:11;6.20;;;2.40;;
80578;SDS011;69939;52.402;6.608;2023-08-30T13:47:40;2.53;;;1.88;;
80578;SDS011;69939;52.402;6.608;2023-08-30T13:50:10;2.20;;;2.00;;
80578;SDS011;69939;52.402;6.608;2023-08-30T13:52:42;2.15;;;1.77;;
80578;SDS011;69939;52.402;6.608;2023-08-30T13:55:09;3.20;;;1.88;;
80578;SDS011;69939;52.402;6.608;2023-08-30T13:57:38;3.03;;;1.92;;
80578;SDS011;69939;52.402;6.608;2023-08-30T14:00:08;2.97;;;1.40;;
80578;SDS011;69939;52.402;6.608;2023-08-30T14:02:41;2.47;;;1.83;;
80578;SDS011;69939;52.402;6.608;2023-08-30T14:07:42;3.00;;;1.92;;
80578;SDS011;69939;52.402;6.608;2023-08-30T14:10:11;2.55;;;1.25;;
80578;SDS011;69939;52.402;6.608;2023-08-30T14:12:43;4.13;;;1.55;;
80578;SDS011;69939;52.402;6.608;2023-08-30T14:15:12;2.63;;;1.92;;
80578;SDS011;69939;52.402;6.608;2023-08-30T14:17:41;1.48;;;1.20;;
80578;SDS011;69939;52.402;6.608;2023-08-30T14:20:10;2.33;;;1.58;;
80578;SDS011;69939;52.402;6.608;2023-08-30T14:22:42;2.72;;;1.67;;
80578;SDS011;69939;52.402;6.608;2023-08-30T14:25:11;3.15;;;1.40;;
80578;SDS011;69939;52.402;6.608;2023-08-30T14:27:40;3.58;;;1.30;;
80578;SDS011;69939;52.402;6.608;2023-08-30T14:30:10;2.47;;;1.30;;
80578;SDS011;69939;52.402;6.608;2023-08-30T14:32:40;2.95;;;1.77;;
80578;SDS011;69939;52.402;6.608;2023-08-30T14:35:09;2.10;;;1.13;;
80578;SDS011;69939;52.402;6.608;2023-08-30T14:37:39;3.13;;;1.75;;
80578;SDS011;69939;52.402;6.608;2023-08-30T14:42:55;3.17;;;1.65;;
80578;SDS011;69939;52.402;6.608;2023-08-30T14:45:24;2.63;;;1.90;;
80578;SDS011;69939;52.402;6.608;2023-08-30T14:47:55;4.03;;;1.92;;
80578;SDS011;69939;52.402;6.608;2023-08-30T14:53:04;2.38;;;1.63;;
80578;SDS011;69939;52.402;6.608;2023-08-30T14:55:36;2.20;;;1.45;;
80578;SDS011;69939;52.402;6.608;2023-08-30T14:58:05;3.15;;;1.65;;
80578;SDS011;69939;52.402;6.608;2023-08-30T15:00:34;5.05;;;1.55;;
80578;SDS011;69939;52.402;6.608;2023-08-30T15:03:03;3.45;;;2.00;;
80578;SDS011;69939;52.402;6.608;2023-08-30T15:05:33;3.50;;;1.38;;
80578;SDS011;69939;52.402;6.608;2023-08-30T15:08:03;5.28;;;1.50;;
80578;SDS011;69939;52.402;6.608;2023-08-30T15:10:36;3.13;;;1.30;;
80578;SDS011;69939;52.402;6.608;2023-08-30T15:13:05;4.50;;;1.30;;
80578;SDS011;69939;52.402;6.608;2023-08-30T15:18:03;6.53;;;1.90;;
80578;SDS011;69939;52.402;6.608;2023-08-30T15:20:33;2.42;;;1.63;;
80578;SDS011;69939;52.402;6.608;2023-08-30T15:23:03;2.53;;;1.70;;
80578;SDS011;69939;52.402;6.608;2023-08-30T15:25:32;6.47;;;1.98;;
80578;SDS011;69939;52.402;6.608;2023-08-30T15:28:04;3.90;;;2.15;;
80578;SDS011;69939;52.402;6.608;2023-08-30T15:30:33;8.05;;;1.65;;
80578;SDS011;69939;52.402;6.608;2023-08-30T15:33:03;5.05;;;1.80;;
80578;SDS011;69939;52.402;6.608;2023-08-30T15:35:37;4.13;;;1.80;;
80578;SDS011;69939;52.402;6.608;2023-08-30T15:38:07;4.03;;;1.65;;
80578;SDS011;69939;52.402;6.608;2023-08-30T15:40:37;2.97;;;1.50;;
80578;SDS011;69939;52.402;6.608;2023-08-30T15:45:37;2.22;;;1.30;;